Time;durP1;ratioP1;P1;durP2;ratioP2;P2;SDS_P1;SDS_P2;PMS_P1;PMS_P2;Temp;Humidity;BMP_temperature;BMP_pressure;BME280_temperature;BME280_humidity;BME280_pressure;Samples;Min_cycle;Max_cycle;Signal;HPM_P1;HPM_P2
2022/09/25 00:00:41;;;;;;;;;;;;;;;16.52;66.49;100762.00;5062797;28;19924;-75
2022/09/25 00:03:07;;;;;;;;;;;;;;;16.47;66.87;100758.88;5063041;28;19925;-75
2022/09/25 00:05:35;;;;;;;;;;;;;;;16.55;66.95;100759.13;5066681;28;20269;-75
2022/09/25 00:08:01;;;;;;;;;;;;;;;16.28;67.83;100758.56;5076220;28;19977;-75
2022/09/25 00:10:29;;;;;;;;;;;;;;;16.47;67.55;100758.03;5086718;28;19990;-75
2022/09/25 00:12:55;;;;;;;;;;;;;;;16.45;67.25;100755.47;5072698;28;19924;-75
2022/09/25 00:15:21;;;;;;;;;;;;;;;16.42;67.33;100754.88;5067675;28;19933;-75
2022/09/25 00:17:48;;;;;;;;;;;;;;;16.51;66.72;100743.59;5061291;28;19924;-76
2022/09/25 00:20:14;;;;;;;;;;;;;;;16.46;67.20;100735.16;5074257;28;19925;-76
2022/09/25 00:22:41;;;;;;;;;;;;;;;16.46;67.45;100745.75;5066925;28;19929;-76
2022/09/25 00:25:09;;;;;;;;;;;;;;;16.43;67.66;100749.47;5067865;28;19931;-76
2022/09/25 00:27:37;;;;;;;;;;;;;;;16.23;68.85;100749.28;5067020;28;20334;-76
2022/09/25 00:30:04;;;;;;;;;;;;;;;16.27;69.21;100745.44;5066392;28;19928;-76
2022/09/25 00:32:30;;;;;;;;;;;;;;;16.15;69.73;100741.91;5069604;28;19938;-75
2022/09/25 00:34:56;;;;;;;;;;;;;;;16.27;68.98;100748.94;5066506;28;19928;-75
2022/09/25 00:37:22;;;;;;;;;;;;;;;16.39;68.48;100740.09;5065176;28;20434;-75
2022/09/25 00:39:49;;;;;;;;;;;;;;;16.42;67.96;100739.00;5067992;28;19924;-75
2022/09/25 00:42:18;;;;;;;;;;;;;;;16.32;68.92;100741.50;5073024;28;19924;-75
2022/09/25 00:44:55;;;;;;;;;;;;;;;16.38;68.63;100741.03;5068051;28;19967;-75
2022/09/25 00:47:24;;;;;;;;;;;;;;;16.27;69.32;100730.41;5063632;28;20003;-76
2022/09/25 00:49:51;;;;;;;;;;;;;;;16.31;68.80;100729.22;5078774;28;19998;-76
2022/09/25 00:52:18;;;;;;;;;;;;;;;16.07;69.38;100734.53;5067732;28;19950;-76
2022/09/25 00:54:46;;;;;;;;;;;;;;;15.99;69.80;100741.38;5068406;28;19974;-76
2022/09/25 00:57:15;;;;;;;;;;;;;;;15.87;70.55;100732.53;5068630;28;19924;-76
2022/09/25 00:59:43;;;;;;;;;;;;;;;15.76;70.93;100734.28;5050646;28;19925;-76
2022/09/25 01:02:13;;;;;;;;;;;;;;;15.67;71.29;100732.34;5068407;28;20445;-76
2022/09/25 01:04:41;;;;;;;;;;;;;;;15.69;71.57;100733.06;5066923;28;20273;-76
2022/09/25 01:07:09;;;;;;;;;;;;;;;15.68;71.30;100736.63;5069374;28;19928;-76
2022/09/25 01:09:35;;;;;;;;;;;;;;;15.93;70.75;100725.94;5066791;28;20408;-76
2022/09/25 01:12:02;;;;;;;;;;;;;;;15.65;71.72;100728.94;5069747;28;19928;-76
2022/09/25 01:14:28;;;;;;;;;;;;;;;15.58;71.45;100729.41;5071079;28;20016;-76
2022/09/25 01:16:59;;;;;;;;;;;;;;;15.52;72.00;100726.38;5073095;28;19925;-76
2022/09/25 01:19:34;;;;;;;;;;;;;;;15.19;73.06;100721.63;5074873;28;19924;-76
2022/09/25 01:22:04;;;;;;;;;;;;;;;15.13;72.90;100726.50;5072027;28;19924;-76
2022/09/25 01:24:48;;;;;;;;;;;;;;;15.51;71.97;100730.78;5089135;28;19981;-76
2022/09/25 01:27:32;;;;;;;;;;;;;;;15.66;71.63;100733.28;5081407;28;19974;-76
2022/09/25 01:30:08;;;;;;;;;;;;;;;15.70;71.43;100740.03;5070114;28;19933;-76
2022/09/25 01:32:38;;;;;;;;;;;;;;;15.86;70.86;100736.13;5078732;28;19924;-77
2022/09/25 01:35:06;;;;;;;;;;;;;;;16.04;70.35;100733.94;5068101;28;20433;-76
2022/09/25 01:37:36;;;;;;;;;;;;;;;16.13;70.02;100722.69;5068019;28;19997;-77
2022/09/25 01:40:06;;;;;;;;;;;;;;;16.20;69.54;100729.19;5067029;28;19924;-77
2022/09/25 01:42:37;;;;;;;;;;;;;;;16.20;69.92;100729.19;5072869;28;19924;-77
2022/09/25 01:45:04;;;;;;;;;;;;;;;16.24;69.92;100730.66;5067446;28;19990;-77
2022/09/25 01:47:36;;;;;;;;;;;;;;;16.24;69.93;100729.81;5067000;28;20338;-77
2022/09/25 01:50:06;;;;;;;;;;;;;;;16.27;69.42;100729.56;5075167;28;19924;-77
2022/09/25 01:52:37;;;;;;;;;;;;;;;16.23;69.75;100726.31;5067305;28;19974;-77
2022/09/25 01:55:06;;;;;;;;;;;;;;;16.20;69.76;100728.34;5067008;28;19924;-77
2022/09/25 01:57:37;;;;;;;;;;;;;;;16.10;69.53;100724.72;5067126;28;19933;-77
2022/09/25 02:00:05;;;;;;;;;;;;;;;16.01;69.93;100729.72;5074480;28;19997;-76
2022/09/25 02:02:35;;;;;;;;;;;;;;;16.02;69.93;100714.69;5063814;28;19925;-76
2022/09/25 02:05:05;;;;;;;;;;;;;;;16.08;69.95;100722.16;5048025;28;19974;-76
2022/09/25 02:07:34;;;;;;;;;;;;;;;15.95;70.22;100724.06;5047306;28;19925;-76
2022/09/25 02:10:03;;;;;;;;;;;;;;;15.64;70.95;100729.88;5044675;28;19931;-75
2022/09/25 02:12:33;;;;;;;;;;;;;;;15.52;71.82;100731.66;5068761;28;19931;-75
2022/09/25 02:15:01;;;;;;;;;;;;;;;15.50;71.70;100723.81;5066948;28;20380;-75
2022/09/25 02:20:35;;;;;;;;;;;;;;;15.45;72.35;100733.81;5077696;28;19935;-75
2022/09/25 02:23:06;;;;;;;;;;;;;;;15.48;72.14;100727.50;5078899;28;20003;-75
2022/09/25 02:25:35;;;;;;;;;;;;;;;15.31;72.42;100728.69;5063238;28;19929;-75
2022/09/25 02:28:02;;;;;;;;;;;;;;;15.09;73.83;100732.03;5065879;28;20042;-75
2022/09/25 02:30:28;;;;;;;;;;;;;;;15.16;73.65;100724.50;5065737;28;19928;-75
2022/09/25 02:32:56;;;;;;;;;;;;;;;15.22;73.61;100728.53;5064696;28;19934;-75
2022/09/25 02:35:24;;;;;;;;;;;;;;;15.36;72.86;100729.22;5053629;28;19967;-75
2022/09/25 02:37:51;;;;;;;;;;;;;;;15.52;72.40;100724.53;5046010;28;20281;-75
2022/09/25 02:40:18;;;;;;;;;;;;;;;15.53;72.21;100723.59;5069314;28;19928;-75
2022/09/25 02:42:48;;;;;;;;;;;;;;;15.51;71.96;100727.31;5082400;28;20288;-75
2022/09/25 02:45:28;;;;;;;;;;;;;;;15.54;72.01;100717.34;5064211;28;19932;-75
2022/09/25 02:48:01;;;;;;;;;;;;;;;15.64;71.76;100722.81;5058539;28;19994;-75
2022/09/25 02:50:35;;;;;;;;;;;;;;;15.64;71.29;100722.81;5073037;28;20436;-75
2022/09/25 02:53:07;;;;;;;;;;;;;;;15.53;71.75;100726.22;5065040;28;19932;-75
2022/09/25 02:55:37;;;;;;;;;;;;;;;15.67;70.97;100722.56;5066146;28;19958;-75
2022/09/25 02:58:06;;;;;;;;;;;;;;;15.66;71.13;100722.72;5063913;28;19929;-76
2022/09/25 03:00:34;;;;;;;;;;;;;;;15.47;71.89;100715.22;5066096;28;19973;-75
2022/09/25 03:03:02;;;;;;;;;;;;;;;15.38;72.07;100714.09;5063578;28;19928;-76
2022/09/25 03:05:30;;;;;;;;;;;;;;;15.41;72.20;100710.41;5065128;28;19932;-77
2022/09/25 03:10:44;;;;;;;;;;;;;;;15.45;72.49;100714.47;5063814;28;20058;-76
2022/09/25 03:13:14;;;;;;;;;;;;;;;15.55;71.90;100711.13;5071510;28;19924;-76
2022/09/25 03:15:41;;;;;;;;;;;;;;;15.64;71.42;100717.50;5065285;28;19924;-75
2022/09/25 03:18:08;;;;;;;;;;;;;;;15.63;71.46;100712.38;5063536;28;19924;-76
2022/09/25 03:20:36;;;;;;;;;;;;;;;15.55;71.55;100716.41;5074459;28;20402;-75
2022/09/25 03:23:02;;;;;;;;;;;;;;;15.39;72.00;100715.78;5065265;28;19981;-78
2022/09/25 03:25:29;;;;;;;;;;;;;;;15.27;72.74;100718.44;5064325;28;19981;-76
2022/09/25 03:27:55;;;;;;;;;;;;;;;15.30;72.76;100705.88;5065331;28;20349;-76
2022/09/25 03:30:23;;;;;;;;;;;;;;;15.25;72.65;100715.94;5068481;28;19924;-77
2022/09/25 03:32:49;;;;;;;;;;;;;;;15.20;72.88;100710.13;5062927;28;19933;-76
2022/09/25 03:35:15;;;;;;;;;;;;;;;15.09;73.57;100712.69;5065703;28;19925;-76
2022/09/25 03:37:43;;;;;;;;;;;;;;;14.90;74.12;100712.28;5064121;28;20269;-77
2022/09/25 03:40:09;;;;;;;;;;;;;;;14.77;74.57;100708.81;5062600;28;19924;-78
2022/09/25 03:42:35;;;;;;;;;;;;;;;14.53;75.70;100713.97;5072003;28;19924;-76
2022/09/25 03:45:02;;;;;;;;;;;;;;;14.38;76.90;100702.69;5064633;28;19925;-76
2022/09/25 03:47:28;;;;;;;;;;;;;;;14.49;76.71;100715.97;5062400;28;20280;-76
2022/09/25 03:49:54;;;;;;;;;;;;;;;14.88;75.14;100717.69;5068753;28;19977;-76
2022/09/25 03:52:20;;;;;;;;;;;;;;;15.00;74.64;100713.34;5084141;28;19924;-76
2022/09/25 03:54:48;;;;;;;;;;;;;;;14.93;74.70;100718.19;5084056;28;20009;-76
2022/09/25 03:57:14;;;;;;;;;;;;;;;14.71;75.03;100706.63;5085387;28;19924;-76
2022/09/25 03:59:40;;;;;;;;;;;;;;;14.36;76.61;100711.66;5083489;28;19924;-76
2022/09/25 04:02:07;;;;;;;;;;;;;;;14.20;77.53;100711.81;5084373;28;19924;-76
2022/09/25 04:04:33;;;;;;;;;;;;;;;14.34;77.41;100714.38;5071030;28;19986;-76
2022/09/25 04:06:59;;;;;;;;;;;;;;;14.50;76.55;100706.28;5063903;28;19970;-77
2022/09/25 04:09:26;;;;;;;;;;;;;;;14.61;75.67;100711.66;5064682;28;19932;-77
2022/09/25 04:11:54;;;;;;;;;;;;;;;14.55;75.79;100699.75;5063228;28;19924;-77
2022/09/25 04:14:21;;;;;;;;;;;;;;;14.52;76.02;100699.94;5066058;28;19925;-77
2022/09/25 04:16:47;;;;;;;;;;;;;;;14.54;76.01;100702.50;5065102;28;19924;-77
2022/09/25 04:19:14;;;;;;;;;;;;;;;14.52;75.89;100705.22;5061504;28;19978;-77
2022/09/25 04:21:41;;;;;;;;;;;;;;;14.37;76.23;100698.38;5065037;28;19925;-77
2022/09/25 04:26:52;;;;;;;;;;;;;;;14.15;77.28;100706.00;5064512;28;20442;-77
2022/09/25 04:29:20;;;;;;;;;;;;;;;14.09;77.57;100704.63;5062584;28;19928;-77
2022/09/25 04:33:44;;;;;;;;;;;;;;;14.14;77.72;100702.53;5050309;28;19924;-77
2022/09/25 04:34:33;;;;;;;;;;;;;;;14.24;77.09;100701.88;5081141;28;19931;-77
2022/09/25 04:37:00;;;;;;;;;;;;;;;14.29;76.93;100690.09;5076213;28;20269;-77
2022/09/25 04:39:26;;;;;;;;;;;;;;;14.48;76.06;100697.63;5066042;28;20404;-77
2022/09/25 04:41:52;;;;;;;;;;;;;;;14.54;75.64;100698.06;5075439;28;19925;-77
2022/09/25 04:44:20;;;;;;;;;;;;;;;14.48;75.94;100695.00;5078797;28;19924;-77
2022/09/25 04:46:46;;;;;;;;;;;;;;;14.40;76.07;100698.16;5071123;28;19928;-77
2022/09/25 04:49:12;;;;;;;;;;;;;;;14.39;76.33;100700.88;5089062;28;19912;-77
2022/09/25 04:51:38;;;;;;;;;;;;;;;14.53;75.76;100699.00;5111975;28;19950;-77
2022/09/25 04:54:05;;;;;;;;;;;;;;;14.46;75.88;100703.00;5113606;28;19946;-77
2022/09/25 04:56:31;;;;;;;;;;;;;;;14.50;76.24;100712.41;5115129;28;19928;-77
2022/09/25 04:58:57;;;;;;;;;;;;;;;14.42;76.43;100709.44;5111472;28;19950;-77
2022/09/25 05:01:25;;;;;;;;;;;;;;;14.41;76.41;100710.38;5094926;28;19948;-77
2022/09/25 05:03:52;;;;;;;;;;;;;;;14.60;75.77;100712.59;5094122;28;19939;-77
2022/09/25 05:06:18;;;;;;;;;;;;;;;14.68;75.55;100717.34;5072268;28;19928;-77
2022/09/25 05:08:44;;;;;;;;;;;;;;;14.60;75.77;100718.72;5076438;28;19925;-78
2022/09/25 05:11:10;;;;;;;;;;;;;;;14.52;76.35;100714.94;5084584;28;19981;-77
2022/09/25 05:13:37;;;;;;;;;;;;;;;14.44;76.44;100718.13;5089162;28;19924;-77
2022/09/25 05:16:03;;;;;;;;;;;;;;;14.23;77.65;100716.88;5071583;28;19924;-77
2022/09/25 05:18:30;;;;;;;;;;;;;;;14.30;77.81;100718.13;5086465;28;20452;-77
2022/09/25 05:20:57;;;;;;;;;;;;;;;14.43;77.12;100712.94;5089109;28;19970;-78
2022/09/25 05:23:23;;;;;;;;;;;;;;;14.32;77.72;100718.91;5091387;28;19924;-78
2022/09/25 05:25:52;;;;;;;;;;;;;;;14.41;77.25;100728.03;5090586;28;20023;-78
2022/09/25 05:28:19;;;;;;;;;;;;;;;14.37;77.59;100729.19;5090851;28;19935;-78
2022/09/25 05:30:45;;;;;;;;;;;;;;;14.39;77.53;100724.63;5085792;28;19925;-78
2022/09/25 05:33:11;;;;;;;;;;;;;;;14.43;77.05;100729.59;5070592;28;19924;-78
2022/09/25 05:35:39;;;;;;;;;;;;;;;14.30;77.63;100731.31;5085589;28;19967;-78
2022/09/25 05:38:05;;;;;;;;;;;;;;;14.42;77.40;100716.50;5092569;28;19928;-77
2022/09/25 05:40:31;;;;;;;;;;;;;;;14.44;77.33;100731.31;5072360;28;19925;-78
2022/09/25 05:42:58;;;;;;;;;;;;;;;14.49;76.85;100721.25;5059144;28;19928;-74
2022/09/25 05:45:24;;;;;;;;;;;;;;;14.56;76.47;100725.16;5070906;28;19925;-74
2022/09/25 05:47:59;;;;;;;;;;;;;;;14.66;76.08;100719.28;5068506;28;19929;-75
2022/09/25 05:50:26;;;;;;;;;;;;;;;14.91;75.37;100711.34;5078796;28;19924;-75
2022/09/25 05:52:56;;;;;;;;;;;;;;;14.88;75.64;100716.84;5091196;28;19928;-77
2022/09/25 05:55:22;;;;;;;;;;;;;;;14.79;76.04;100712.19;5090668;28;19928;-76
2022/09/25 05:57:48;;;;;;;;;;;;;;;14.90;75.67;100714.91;5087893;28;19977;-77
2022/09/25 06:00:16;;;;;;;;;;;;;;;15.05;75.26;100713.84;5071387;28;20338;-76
2022/09/25 06:02:42;;;;;;;;;;;;;;;15.13;75.17;100708.88;5070307;28;20011;-78
2022/09/25 06:05:09;;;;;;;;;;;;;;;15.10;75.23;100706.47;5069021;28;19928;-76
2022/09/25 06:07:35;;;;;;;;;;;;;;;15.08;75.53;100713.63;5069414;28;19928;-75
2022/09/25 06:10:03;;;;;;;;;;;;;;;15.28;74.79;100710.44;5069241;28;19928;-76
2022/09/25 06:12:30;;;;;;;;;;;;;;;15.23;74.81;100709.06;5067934;28;20296;-77
2022/09/25 06:14:56;;;;;;;;;;;;;;;15.13;74.94;100708.88;5068384;28;19982;-77
2022/09/25 06:17:22;;;;;;;;;;;;;;;15.13;75.24;100706.22;5068885;28;19932;-75
2022/09/25 06:19:49;;;;;;;;;;;;;;;14.95;75.99;100704.91;5066564;28;19970;-77
2022/09/25 06:22:15;;;;;;;;;;;;;;;15.19;75.26;100711.06;5068637;28;19924;-75
2022/09/25 06:24:41;;;;;;;;;;;;;;;15.17;74.90;100709.50;5068046;28;19924;-77
2022/09/25 06:27:09;;;;;;;;;;;;;;;15.27;74.89;100710.53;5069105;28;19932;-78
2022/09/25 06:29:35;;;;;;;;;;;;;;;14.97;75.67;100710.91;5068259;28;19979;-78
2022/09/25 06:32:02;;;;;;;;;;;;;;;14.86;76.29;100710.81;5068576;28;19928;-80
2022/09/25 06:34:28;;;;;;;;;;;;;;;15.04;75.35;100706.88;5067640;28;19928;-79
2022/09/25 06:36:54;;;;;;;;;;;;;;;14.80;76.59;100701.53;5067810;28;19928;-77
2022/09/25 06:39:20;;;;;;;;;;;;;;;15.02;76.14;100708.78;5067137;28;19925;-78
2022/09/25 06:41:47;;;;;;;;;;;;;;;15.14;75.65;100705.28;5066967;28;19925;-78
2022/09/25 06:44:14;;;;;;;;;;;;;;;15.24;75.38;100710.75;5068445;28;19978;-77
2022/09/25 06:46:43;;;;;;;;;;;;;;;14.71;77.50;100706.63;5071075;28;19924;-77
2022/09/25 06:49:12;;;;;;;;;;;;;;;14.41;78.63;100706.94;5069909;28;21357;-77
2022/09/25 06:51:38;;;;;;;;;;;;;;;14.57;78.54;100708.41;5071779;28;19936;-76
2022/09/25 06:54:04;;;;;;;;;;;;;;;15.39;75.93;100713.16;5069368;28;20411;-76
2022/09/25 06:56:30;;;;;;;;;;;;;;;15.67;75.00;100714.66;5084931;28;19924;-77
2022/09/25 06:58:56;;;;;;;;;;;;;;;16.37;72.34;100714.72;5077096;28;19928;-76
2022/09/25 07:01:24;;;;;;;;;;;;;;;16.39;72.67;100703.03;5065544;28;20446;-76
2022/09/25 07:03:49;;;;;;;;;;;;;;;17.02;70.02;100706.97;5064700;28;19977;-76
2022/09/25 07:06:17;;;;;;;;;;;;;;;17.44;67.94;100708.84;5086663;28;20613;-77
2022/09/25 07:08:43;;;;;;;;;;;;;;;18.19;68.10;100706.19;5086582;28;19924;-77
2022/09/25 07:11:11;;;;;;;;;;;;;;;19.19;65.95;100699.34;5065576;28;20455;-77
2022/09/25 07:13:38;;;;;;;;;;;;;;;20.00;59.65;100704.41;5078296;28;19970;-77
2022/09/25 07:16:05;;;;;;;;;;;;;;;20.46;59.85;100689.53;5069478;28;19925;-77
2022/09/25 07:18:33;;;;;;;;;;;;;;;20.83;58.14;100693.91;5073134;28;19924;-77
2022/09/25 07:21:00;;;;;;;;;;;;;;;21.42;56.14;100695.34;5084926;28;19924;-76
2022/09/25 07:23:27;;;;;;;;;;;;;;;21.57;55.76;100696.50;5085454;28;19924;-76
2022/09/25 07:25:53;;;;;;;;;;;;;;;22.31;53.61;100691.69;5078081;28;19924;-76
2022/09/25 07:28:20;;;;;;;;;;;;;;;22.70;53.62;100696.66;5075569;28;19924;-76
2022/09/25 07:30:47;;;;;;;;;;;;;;;23.06;50.61;100692.81;5083675;28;19924;-76
2022/09/25 07:33:13;;;;;;;;;;;;;;;23.44;50.54;100698.69;5063426;28;19924;-75
2022/09/25 07:35:41;;;;;;;;;;;;;;;22.92;50.01;100695.25;5067256;28;19925;-75
2022/09/25 07:38:07;;;;;;;;;;;;;;;22.80;50.67;100695.53;5065306;28;20433;-76
2022/09/25 07:40:34;;;;;;;;;;;;;;;23.06;50.59;100697.34;5083116;28;19977;-76
2022/09/25 07:43:00;;;;;;;;;;;;;;;22.83;50.82;100690.88;5078850;28;19924;-76
2022/09/25 07:45:26;;;;;;;;;;;;;;;22.96;50.15;100699.28;5072643;28;19925;-75
2022/09/25 07:47:55;;;;;;;;;;;;;;;23.01;51.06;100705.00;5062550;28;19929;-75
2022/09/25 07:50:21;;;;;;;;;;;;;;;22.10;51.24;100693.00;5078841;28;19925;-75
2022/09/25 07:52:48;;;;;;;;;;;;;;;22.18;50.39;100687.72;5085456;28;19924;-75
2022/09/25 07:55:15;;;;;;;;;;;;;;;21.41;52.48;100695.47;5080769;28;19924;-76
2022/09/25 07:57:42;;;;;;;;;;;;;;;21.71;52.59;100697.81;5068231;28;19933;-77
2022/09/25 08:00:09;;;;;;;;;;;;;;;21.36;56.18;100686.09;5064973;28;20347;-77
2022/09/25 08:02:35;;;;;;;;;;;;;;;21.15;52.84;100692.66;5063944;28;20660;-77
2022/09/25 08:05:02;;;;;;;;;;;;;;;21.40;53.17;100685.78;5066233;28;19990;-77
2022/09/25 08:07:28;;;;;;;;;;;;;;;21.41;55.87;100698.13;5077660;28;19925;-77
2022/09/25 08:09:56;;;;;;;;;;;;;;;21.21;55.10;100692.91;5064516;28;19978;-77
2022/09/25 08:12:23;;;;;;;;;;;;;;;20.94;55.00;100690.22;5044854;28;20476;-77
2022/09/25 08:14:49;;;;;;;;;;;;;;;20.91;57.09;100697.66;5053665;28;19928;-78
2022/09/25 08:17:15;;;;;;;;;;;;;;;20.74;55.92;100694.78;5065739;28;19928;-77
2022/09/25 08:19:42;;;;;;;;;;;;;;;21.17;54.98;100698.72;5069187;28;19985;-77
2022/09/25 08:22:08;;;;;;;;;;;;;;;21.77;53.32;100699.84;5076029;28;19984;-77
2022/09/25 08:24:34;;;;;;;;;;;;;;;21.88;52.67;100702.28;5084090;28;19977;-77
2022/09/25 08:27:02;;;;;;;;;;;;;;;21.58;53.60;100700.00;5087663;28;20341;-77
2022/09/25 08:29:28;;;;;;;;;;;;;;;21.58;53.09;100700.00;5086257;28;20338;-77
2022/09/25 08:31:55;;;;;;;;;;;;;;;21.42;53.05;100702.50;5076076;28;19924;-77
2022/09/25 08:34:21;;;;;;;;;;;;;;;21.32;54.05;100700.72;5082052;28;19924;-77
2022/09/25 08:36:48;;;;;;;;;;;;;;;21.34;55.95;100692.56;5088168;28;19924;-77
2022/09/25 08:39:14;;;;;;;;;;;;;;;21.32;56.10;100700.72;5082798;28;19981;-77
2022/09/25 08:41:44;;;;;;;;;;;;;;;21.22;54.86;100694.59;5066017;28;19924;-76
2022/09/25 08:44:18;;;;;;;;;;;;;;;21.19;54.19;100694.91;5066348;28;19929;-76
2022/09/25 08:49:34;;;;;;;;;;;;;;;21.66;55.31;100700.91;5073838;28;19985;-76
2022/09/25 08:52:03;;;;;;;;;;;;;;;21.96;55.24;100694.41;5079035;28;19973;-75
2022/09/25 08:54:30;;;;;;;;;;;;;;;21.85;53.92;100698.09;5080851;28;20326;-75
2022/09/25 08:56:58;;;;;;;;;;;;;;;21.74;52.33;100703.66;5074175;28;19928;-75
2022/09/25 08:59:28;;;;;;;;;;;;;;;22.24;51.70;100706.69;5065754;28;19994;-75
2022/09/25 09:01:56;;;;;;;;;;;;;;;22.01;52.56;100705.47;5053871;28;19933;-77
2022/09/25 09:04:25;;;;;;;;;;;;;;;21.59;51.79;100696.34;5069993;28;20326;-76
2022/09/25 09:06:53;;;;;;;;;;;;;;;21.70;54.61;100698.78;5066394;28;19925;-77
2022/09/25 09:09:23;;;;;;;;;;;;;;;21.98;53.74;100696.94;5067503;28;20358;-77
2022/09/25 09:11:52;;;;;;;;;;;;;;;22.59;52.20;100688.88;5068760;28;19974;-76
2022/09/25 09:14:21;;;;;;;;;;;;;;;22.56;52.01;100687.34;5066294;28;19928;-76
2022/09/25 09:16:55;;;;;;;;;;;;;;;23.09;50.19;100689.84;5068164;28;20326;-76
2022/09/25 09:19:21;;;;;;;;;;;;;;;22.88;49.35;100692.06;5073850;28;20379;-75
2022/09/25 09:21:51;;;;;;;;;;;;;;;22.83;49.36;100689.06;5069353;28;20312;-76
2022/09/25 09:24:24;;;;;;;;;;;;;;;22.64;50.46;100697.25;5067978;28;19935;-75
2022/09/25 09:27:05;;;;;;;;;;;;;;;22.48;52.33;100692.63;5067301;28;19925;-75
2022/09/25 09:29:41;;;;;;;;;;;;;;;22.51;51.30;100699.50;5073760;28;19924;-76
2022/09/25 09:32:19;;;;;;;;;;;;;;;22.18;51.47;100699.25;5076455;28;19929;-76
2022/09/25 09:34:56;;;;;;;;;;;;;;;22.12;50.92;100702.56;5064503;28;19924;-76
2022/09/25 09:37:30;;;;;;;;;;;;;;;21.93;53.17;100702.72;5066848;28;19932;-76
2022/09/25 09:40:02;;;;;;;;;;;;;;;21.95;51.13;100695.38;5047461;28;19984;-76
2022/09/25 09:42:35;;;;;;;;;;;;;;;21.94;52.12;100695.56;5055849;28;20612;-77
2022/09/25 09:45:08;;;;;;;;;;;;;;;21.90;53.50;100692.31;5068607;28;19924;-76
2022/09/25 09:47:42;;;;;;;;;;;;;;;22.01;49.82;100694.78;5068746;28;20295;-76
2022/09/25 09:50:37;;;;;;;;;;;;;;;22.11;54.29;100689.34;5076909;28;20407;-76
2022/09/25 09:53:06;;;;;;;;;;;;;;;23.08;52.71;100680.13;5065785;28;19986;-76
2022/09/25 09:55:37;;;;;;;;;;;;;;;23.94;49.85;100679.88;5066465;28;19931;-76
2022/09/25 09:58:07;;;;;;;;;;;;;;;24.42;50.89;100679.03;5068684;28;20011;-76
2022/09/25 10:00:34;;;;;;;;;;;;;;;24.71;47.01;100676.63;5066070;28;20181;-76
2022/09/25 10:03:03;;;;;;;;;;;;;;;24.42;45.08;100668.31;5065095;28;19934;-75
2022/09/25 10:05:31;;;;;;;;;;;;;;;23.42;46.80;100668.59;5065003;28;19925;-75
2022/09/25 10:07:58;;;;;;;;;;;;;;;23.52;47.15;100675.47;5067242;28;19926;-75
2022/09/25 10:10:37;;;;;;;;;;;;;;;23.13;49.01;100669.78;5063095;28;20305;-76
2022/09/25 10:13:09;;;;;;;;;;;;;;;22.83;49.16;100667.66;5066296;28;19925;-77
2022/09/25 10:15:37;;;;;;;;;;;;;;;22.51;50.35;100670.94;5064110;28;19925;-70
2022/09/25 10:18:06;;;;;;;;;;;;;;;22.59;51.04;100680.84;5061941;28;20342;-70
2022/09/25 10:20:36;;;;;;;;;;;;;;;23.16;52.96;100679.34;5073506;28;19994;-70
2022/09/25 10:23:04;;;;;;;;;;;;;;;23.29;50.92;100671.69;5066113;28;19955;-70
2022/09/25 10:25:37;;;;;;;;;;;;;;;23.02;48.83;100680.75;5064718;28;19964;-70
2022/09/25 10:28:20;;;;;;;;;;;;;;;22.04;50.62;100678.44;5062706;28;19925;-70
2022/09/25 10:30:47;;;;;;;;;;;;;;;21.78;51.29;100675.69;5063348;28;19925;-70
2022/09/25 10:33:18;;;;;;;;;;;;;;;21.59;53.92;100680.31;5066676;28;19924;-70
2022/09/25 10:35:45;;;;;;;;;;;;;;;21.72;53.32;100681.66;5066295;28;19928;-70
2022/09/25 10:38:18;;;;;;;;;;;;;;;22.30;53.12;100671.31;5064608;28;19968;-70
2022/09/25 10:40:48;;;;;;;;;;;;;;;22.41;49.67;100667.53;5065284;28;19925;-70
2022/09/25 10:43:15;;;;;;;;;;;;;;;22.39;50.65;100674.06;5056777;28;19928;-70
2022/09/25 10:45:42;;;;;;;;;;;;;;;22.31;49.60;100681.00;5065612;28;20639;-69
2022/09/25 10:51:08;;;;;;;;;;;;;;;21.95;50.19;100681.22;5075368;28;20021;-70
2022/09/25 10:53:35;;;;;;;;;;;;;;;21.96;52.41;100681.03;5086274;28;19977;-70
2022/09/25 10:56:04;;;;;;;;;;;;;;;21.73;52.04;100680.63;5075231;28;19977;-70
2022/09/25 10:58:34;;;;;;;;;;;;;;;21.17;53.09;100680.88;5065035;28;19929;-70
2022/09/25 11:01:02;;;;;;;;;;;;;;;21.21;52.70;100681.44;5064666;28;19955;-69
2022/09/25 11:03:31;;;;;;;;;;;;;;;21.15;53.58;100682.00;5055966;28;20327;-70
2022/09/25 11:05:59;;;;;;;;;;;;;;;21.77;52.72;100678.50;5054070;28;19930;-69
2022/09/25 11:08:27;;;;;;;;;;;;;;;21.29;52.75;100679.66;5064522;28;19925;-70
2022/09/25 11:10:56;;;;;;;;;;;;;;;21.55;53.49;100692.28;5065316;28;20475;-70
2022/09/25 11:13:24;;;;;;;;;;;;;;;21.49;53.01;100684.91;5064501;28;19970;-70
2022/09/25 11:15:53;;;;;;;;;;;;;;;22.26;51.59;100677.97;5064721;28;19928;-70
2022/09/25 11:18:34;;;;;;;;;;;;;;;22.86;51.97;100669.16;5065001;28;20388;-70
2022/09/25 11:21:01;;;;;;;;;;;;;;;23.63;49.77;100667.13;5066248;28;19924;-70
2022/09/25 11:23:31;;;;;;;;;;;;;;;24.15;49.08;100650.75;5064265;28;19928;-70
2022/09/25 11:25:58;;;;;;;;;;;;;;;24.53;47.54;100655.41;5064569;28;19925;-70
2022/09/25 11:28:28;;;;;;;;;;;;;;;24.87;44.79;100657.81;5065062;28;20453;-69
2022/09/25 11:30:57;;;;;;;;;;;;;;;24.77;43.42;100657.16;5065460;28;19990;-69
2022/09/25 11:33:27;;;;;;;;;;;;;;;24.78;44.92;100658.84;5064043;28;19925;-70
2022/09/25 11:35:58;;;;;;;;;;;;;;;24.57;43.76;100651.38;5055816;28;20349;-69
2022/09/25 11:41:13;;;;;;;;;;;;;;;23.26;47.71;100645.25;5041608;28;19925;-70
2022/09/25 11:43:46;;;;;;;;;;;;;;;23.68;46.69;100642.53;5044588;28;19924;-70
2022/09/25 11:46:19;;;;;;;;;;;;;;;22.74;45.71;100641.88;5055979;28;20320;-70
2022/09/25 11:48:49;;;;;;;;;;;;;;;22.69;49.43;100645.03;5066976;28;20338;-70
2022/09/25 11:51:21;;;;;;;;;;;;;;;22.87;49.11;100636.94;5068493;28;19974;-70
2022/09/25 11:53:54;;;;;;;;;;;;;;;22.79;46.53;100637.75;5043903;28;19968;-70
2022/09/25 11:56:25;;;;;;;;;;;;;;;22.36;48.51;100628.97;5062259;28;19924;-70
2022/09/25 11:58:59;;;;;;;;;;;;;;;22.03;49.76;100638.53;5064873;28;19928;-70
2022/09/25 12:01:29;;;;;;;;;;;;;;;22.17;51.16;100628.13;5063777;28;19978;-70
2022/09/25 12:04:04;;;;;;;;;;;;;;;22.76;52.51;100637.22;5064018;28;19994;-70
2022/09/25 12:06:41;;;;;;;;;;;;;;;22.98;50.97;100623.28;5063303;28;19936;-70
2022/09/25 12:09:17;;;;;;;;;;;;;;;22.91;48.02;100627.56;5050364;28;19936;-70
2022/09/25 12:11:48;;;;;;;;;;;;;;;23.27;47.98;100636.25;5044808;28;19926;-69
2022/09/25 12:14:17;;;;;;;;;;;;;;;23.50;47.22;100631.13;5043923;28;20384;-70
2022/09/25 12:16:48;;;;;;;;;;;;;;;23.93;46.90;100628.16;5058459;28;19977;-69
2022/09/25 12:19:23;;;;;;;;;;;;;;;23.88;48.38;100627.81;5071234;28;19955;-69
2022/09/25 12:21:58;;;;;;;;;;;;;;;23.65;47.55;100626.81;5050952;28;20361;-69
2022/09/25 12:24:31;;;;;;;;;;;;;;;23.15;47.09;100622.31;5063189;28;20379;-69
2022/09/25 12:27:03;;;;;;;;;;;;;;;22.40;49.39;100622.28;5064287;28;20007;-69
2022/09/25 12:29:45;;;;;;;;;;;;;;;22.02;51.63;100623.53;5060883;28;19925;-70
2022/09/25 12:32:17;;;;;;;;;;;;;;;22.17;53.10;100620.13;5064269;28;20408;-70
2022/09/25 12:34:51;;;;;;;;;;;;;;;22.32;50.80;100623.06;5062586;28;19924;-70
2022/09/25 12:37:22;;;;;;;;;;;;;;;22.43;50.27;100617.44;5055060;28;19982;-70
2022/09/25 12:39:51;;;;;;;;;;;;;;;22.46;51.81;100627.84;5057379;28;19990;-69
2022/09/25 12:42:22;;;;;;;;;;;;;;;22.49;51.17;100618.66;5045011;28;19929;-69
2022/09/25 12:44:51;;;;;;;;;;;;;;;22.43;48.62;100612.09;5044141;28;20023;-69
2022/09/25 12:47:23;;;;;;;;;;;;;;;22.20;49.65;100621.66;5058933;28;19928;-69
2022/09/25 12:49:51;;;;;;;;;;;;;;;22.09;49.39;100614.75;5062492;28;20291;-70
2022/09/25 12:52:20;;;;;;;;;;;;;;;21.96;49.81;100614.31;5063081;28;19924;-70
2022/09/25 12:54:50;;;;;;;;;;;;;;;22.08;50.91;100614.91;5061314;28;20025;-70
2022/09/25 12:57:19;;;;;;;;;;;;;;;22.10;50.02;100611.06;5062857;28;19924;-69
2022/09/25 12:59:47;;;;;;;;;;;;;;;21.89;51.92;100607.88;5063748;28;19956;-70